Time;durP1;ratioP1;P1;durP2;ratioP2;P2;SDS_P1;SDS_P2;PMS_P1;PMS_P2;Temp;Humidity;BMP_temperature;BMP_pressure;BME280_temperature;BME280_humidity;BME280_pressure;Samples;Min_cycle;Max_cycle;Signal;HPM_P1;HPM_P2
2022/12/05 00:00:33;;;;;;;0.85;0.85;;;4.30;99.90;;;;;;5049646;28;20524;-82
2022/12/05 00:03:04;;;;;;;0.82;0.82;;;4.30;99.90;;;;;;5040968;28;20128;-81
2022/12/05 00:05:30;;;;;;;0.60;0.60;;;4.30;99.90;;;;;;5035066;28;20131;-82
2022/12/05 00:07:56;;;;;;;0.57;0.57;;;4.30;99.90;;;;;;5045537;28;20033;-83
2022/12/05 00:10:21;;;;;;;0.70;0.70;;;4.30;99.90;;;;;;5051938;28;20474;-82
2022/12/05 00:12:47;;;;;;;1.52;1.42;;;4.40;99.90;;;;;;5068211;28;20047;-86
2022/12/05 00:15:13;;;;;;;0.77;0.77;;;4.40;99.90;;;;;;5028589;28;20051;-83
2022/12/05 00:17:39;;;;;;;2.15;2.05;;;5.20;99.90;;;;;;5030480;28;20494;-82
2022/12/05 00:20:07;;;;;;;0.70;0.70;;;4.40;99.90;;;;;;5049185;28;20045;-83
2022/12/05 00:22:36;;;;;;;0.60;0.60;;;4.40;99.90;;;;;;5035013;28;20041;-81
2022/12/05 00:25:04;;;;;;;2.53;2.38;;;4.50;99.90;;;;;;5046642;28;20032;-83
2022/12/05 00:27:31;;;;;;;2.30;1.73;;;4.50;99.90;;;;;;5044105;28;20047;-82
2022/12/05 00:29:56;;;;;;;2.58;1.02;;;4.50;99.90;;;;;;5055396;28;20358;-81
2022/12/05 00:32:22;;;;;;;1.08;1.05;;;4.50;99.90;;;;;;5053078;28;20060;-82
2022/12/05 00:34:48;;;;;;;0.73;0.73;;;4.50;99.90;;;;;;5053801;28;20064;-82
2022/12/05 00:37:14;;;;;;;;;;;4.50;99.90;;;;;;5030080;28;20191;-83
2022/12/05 00:39:39;;;;;;;0.80;0.80;;;4.50;99.90;;;;;;5049836;28;20007;-82
2022/12/05 00:42:05;;;;;;;0.70;0.70;;;4.50;99.90;;;;;;5040559;28;20142;-81
2022/12/05 00:44:31;;;;;;;1.23;1.23;;;4.50;99.90;;;;;;5056839;28;20486;-83
2022/12/05 00:46:57;;;;;;;0.80;0.80;;;5.10;99.90;;;;;;5037929;28;20052;-83
2022/12/05 00:49:22;;;;;;;1.00;1.00;;;4.60;99.90;;;;;;5037782;28;20060;-82
2022/12/05 00:51:51;;;;;;;1.63;0.95;;;4.50;99.90;;;;;;5056709;28;20048;-83
2022/12/05 00:54:17;;;;;;;0.60;0.60;;;4.50;99.90;;;;;;5043000;28;20506;-83
2022/12/05 00:56:43;;;;;;;0.60;0.60;;;4.60;99.90;;;;;;5049060;28;20045;-83
2022/12/05 00:59:18;;;;;;;0.60;0.60;;;4.60;99.90;;;;;;5039189;28;20083;-82
2022/12/05 01:01:45;;;;;;;0.55;0.55;;;4.70;99.90;;;;;;5051604;28;20140;-83
2022/12/05 01:04:17;;;;;;;0.60;0.60;;;4.60;99.90;;;;;;5053256;28;21749;-82
2022/12/05 01:06:45;;;;;;;2.08;1.98;;;4.60;99.90;;;;;;5066823;28;20075;-82
2022/12/05 01:09:13;;;;;;;1.15;1.15;;;4.60;99.90;;;;;;5042443;28;20042;-83
2022/12/05 01:11:40;;;;;;;1.13;1.10;;;4.80;99.90;;;;;;5069052;28;20040;-82
2022/12/05 01:14:05;;;;;;;1.35;1.27;;;4.70;99.90;;;;;;5032183;28;20128;-83
2022/12/05 01:16:34;;;;;;;0.70;0.70;;;4.70;99.90;;;;;;5037234;28;20043;-82
2022/12/05 01:19:05;;;;;;;0.63;0.63;;;4.80;99.90;;;;;;5051096;28;20059;-82
2022/12/05 01:21:31;;;;;;;0.70;0.70;;;4.80;99.90;;;;;;5037201;28;20037;-81
2022/12/05 01:23:56;;;;;;;0.50;0.50;;;4.80;99.90;;;;;;5050953;28;20048;-81
2022/12/05 01:26:23;;;;;;;1.60;1.50;;;4.80;99.90;;;;;;5031419;28;20032;-81
2022/12/05 01:28:50;;;;;;;0.60;0.60;;;5.20;99.90;;;;;;5039828;28;20045;-81
2022/12/05 01:31:26;;;;;;;5.78;1.55;;;4.80;99.90;;;;;;5031294;28;20900;-80
2022/12/05 01:33:53;;;;;;;0.80;0.80;;;4.90;99.90;;;;;;5047438;28;20378;-83
2022/12/05 01:36:20;;;;;;;0.70;0.70;;;4.90;99.90;;;;;;5065918;28;20067;-82
2022/12/05 01:38:46;;;;;;;1.17;1.13;;;4.90;99.90;;;;;;5043959;28;20092;-81
2022/12/05 01:41:17;;;;;;;0.70;0.70;;;4.90;99.90;;;;;;5056219;28;20045;-83
2022/12/05 01:44:12;;;;;;;0.52;0.52;;;4.90;99.90;;;;;;5054784;28;20071;-81
2022/12/05 01:46:50;;;;;;;1.98;1.88;;;5.00;99.90;;;;;;5030591;28;20056;-80
2022/12/05 01:49:39;;;;;;;0.60;0.60;;;5.00;99.90;;;;;;5056769;28;20094;-81
2022/12/05 01:52:21;;;;;;;0.50;0.50;;;5.00;99.90;;;;;;5053593;28;20103;-82
2022/12/05 01:54:51;;;;;;;0.70;0.70;;;5.10;99.90;;;;;;5050203;28;20049;-80
2022/12/05 01:57:17;;;;;;;0.60;0.60;;;5.10;99.90;;;;;;5069993;28;20060;-81
2022/12/05 01:59:54;;;;;;;0.60;0.60;;;5.00;99.90;;;;;;5042854;28;20040;-83
2022/12/05 02:02:20;;;;;;;0.93;0.93;;;5.70;99.90;;;;;;5058366;28;20464;-82
2022/12/05 02:05:10;;;;;;;1.33;1.23;;;5.30;99.90;;;;;;5055088;28;20068;-83
2022/12/05 02:07:39;;;;;;;0.52;0.52;;;5.10;99.90;;;;;;5060623;28;20040;-82
2022/12/05 02:10:11;;;;;;;0.65;0.65;;;5.10;99.90;;;;;;5025412;28;20455;-82
2022/12/05 02:12:37;;;;;;;1.15;1.15;;;5.10;99.90;;;;;;5054294;28;20668;-82
2022/12/05 02:15:09;;;;;;;0.68;0.68;;;5.00;99.90;;;;;;5029646;28;20048;-81
2022/12/05 02:17:47;;;;;;;0.85;0.85;;;5.20;99.90;;;;;;5059762;28;20082;-82
2022/12/05 02:20:37;;;;;;;0.57;0.57;;;5.00;99.90;;;;;;5058377;28;20036;-82
2022/12/05 02:23:15;;;;;;;0.60;0.60;;;5.70;99.90;;;;;;5053440;28;20785;-82
2022/12/05 02:26:02;;;;;;;0.60;0.60;;;5.00;99.90;;;;;;5065676;28;20048;-82
2022/12/05 02:28:36;;;;;;;;;;;5.00;99.90;;;;;;5043312;28;20051;-82
2022/12/05 02:31:05;;;;;;;0.60;0.60;;;5.00;99.90;;;;;;5068253;28;19916;-81
2022/12/05 02:33:55;;;;;;;0.70;0.70;;;5.00;99.90;;;;;;5066361;28;20119;-82
2022/12/05 02:36:31;;;;;;;0.90;0.90;;;5.00;99.90;;;;;;5070320;28;20052;-81
2022/12/05 02:39:02;;;;;;;0.60;0.60;;;6.00;99.90;;;;;;5074544;28;20055;-82
2022/12/05 02:41:36;;;;;;;0.93;0.80;;;5.00;99.90;;;;;;5069752;28;20049;-81
2022/12/05 02:44:17;;;;;;;0.70;0.70;;;4.90;99.90;;;;;;5061044;28;20064;-83
2022/12/05 02:46:45;;;;;;;0.50;0.50;;;5.10;99.90;;;;;;5045132;28;20129;-82
2022/12/05 02:49:18;;;;;;;0.70;0.70;;;4.90;99.90;;;;;;5040644;28;20044;-81
2022/12/05 02:51:48;;;;;;;0.50;0.50;;;4.90;99.90;;;;;;5052885;28;20048;-82
2022/12/05 02:54:18;;;;;;;0.73;0.73;;;4.90;99.90;;;;;;5042459;28;20059;-81
2022/12/05 02:56:46;;;;;;;0.50;0.50;;;4.90;99.90;;;;;;5053284;28;20052;-82
2022/12/05 02:59:12;;;;;;;0.60;0.60;;;4.90;99.90;;;;;;5050216;28;20049;-82
2022/12/05 03:01:45;;;;;;;1.17;1.15;;;4.90;99.90;;;;;;5065920;28;20044;-82
2022/12/05 03:04:13;;;;;;;0.45;0.45;;;4.90;99.90;;;;;;5051355;28;20044;-83
2022/12/05 03:06:50;;;;;;;0.60;0.60;;;5.00;99.90;;;;;;5058529;28;20040;-82
2022/12/05 03:09:39;;;;;;;0.77;0.77;;;4.90;99.90;;;;;;5061880;28;20487;-82
2022/12/05 03:12:23;;;;;;;0.50;0.50;;;4.90;99.90;;;;;;5053782;28;20047;-82
2022/12/05 03:14:55;;;;;;;0.70;0.70;;;4.90;99.90;;;;;;5041138;28;20304;-82
2022/12/05 03:17:29;;;;;;;0.60;0.60;;;4.90;99.90;;;;;;5051723;28;20130;-81
2022/12/05 03:20:18;;;;;;;0.50;0.50;;;4.80;99.90;;;;;;5056591;28;20409;-82
2022/12/05 03:22:48;;;;;;;0.70;0.70;;;5.70;99.90;;;;;;5067188;28;20119;-82
2022/12/05 03:25:14;;;;;;;0.70;0.70;;;5.40;99.90;;;;;;5050913;28;20155;-82
2022/12/05 03:27:57;;;;;;;0.70;0.70;;;4.90;99.90;;;;;;5035804;28;20041;-81
2022/12/05 03:30:24;;;;;;;1.48;1.40;;;4.90;99.90;;;;;;5048303;28;20048;-82
2022/12/05 03:33:09;;;;;;;1.15;1.15;;;4.90;99.90;;;;;;5045233;28;20068;-83
2022/12/05 03:35:42;;;;;;;0.52;0.52;;;4.90;99.90;;;;;;5056060;28;20083;-83
2022/12/05 03:38:15;;;;;;;0.90;0.90;;;4.80;99.90;;;;;;5038274;28;20065;-81
2022/12/05 03:40:46;;;;;;;0.65;0.65;;;4.80;99.90;;;;;;5053307;28;20151;-81
2022/12/05 03:43:30;;;;;;;0.60;0.60;;;4.80;99.90;;;;;;5053688;28;20048;-82
2022/12/05 03:46:21;;;;;;;0.50;0.50;;;4.80;99.90;;;;;;5039858;28;20047;-81
2022/12/05 03:48:54;;;;;;;0.60;0.60;;;4.80;99.90;;;;;;5055892;28;20045;-82
2022/12/05 03:51:26;;;;;;;0.52;0.52;;;4.80;99.90;;;;;;5049608;28;20394;-83
2022/12/05 03:53:58;;;;;;;0.40;0.40;;;4.80;99.90;;;;;;5044556;28;20040;-84
2022/12/05 03:56:30;;;;;;;0.60;0.60;;;4.80;99.90;;;;;;5047716;28;20083;-83
2022/12/05 03:59:03;;;;;;;0.80;0.80;;;4.80;99.90;;;;;;5038794;28;20700;-82
2022/12/05 04:01:30;;;;;;;0.88;0.88;;;4.80;99.90;;;;;;5056409;28;20087;-82
2022/12/05 04:04:02;;;;;;;0.85;0.85;;;4.80;99.90;;;;;;5040253;28;20044;-81
2022/12/05 04:06:39;;;;;;;0.50;0.50;;;5.60;99.90;;;;;;5055713;28;20075;-82
2022/12/05 04:09:14;;;;;;;1.10;1.10;;;4.80;99.90;;;;;;5046602;28;20051;-83
2022/12/05 04:11:47;;;;;;;0.60;0.60;;;5.40;99.90;;;;;;5069772;28;20047;-83
2022/12/05 04:14:19;;;;;;;1.60;1.60;;;4.80;99.90;;;;;;5050541;28;20123;-83
2022/12/05 04:17:08;;;;;;;0.88;0.88;;;4.80;99.90;;;;;;5052290;28;20458;-82
2022/12/05 04:22:38;;;;;;;0.60;0.60;;;4.80;99.90;;;;;;5060571;28;20119;-83
2022/12/05 04:28:32;;;;;;;2.08;1.67;;;4.80;99.90;;;;;;5039249;28;20045;-82
2022/12/05 04:31:16;;;;;;;0.73;0.73;;;4.80;99.90;;;;;;5039386;28;21040;-82
2022/12/05 04:33:44;;;;;;;0.50;0.50;;;4.80;99.90;;;;;;5068985;28;20036;-81
2022/12/05 04:36:19;;;;;;;0.60;0.60;;;4.80;99.90;;;;;;5049655;28;20206;-82
2022/12/05 04:38:51;;;;;;;0.60;0.60;;;4.80;99.90;;;;;;5064722;28;20052;-82
2022/12/05 04:41:44;;;;;;;0.60;0.60;;;4.80;99.90;;;;;;5072032;28;20040;-82
2022/12/05 04:44:14;;;;;;;0.70;0.70;;;4.90;99.90;;;;;;5041927;28;20041;-82
2022/12/05 04:46:43;;;;;;;0.63;0.63;;;4.90;99.90;;;;;;5071563;28;20131;-83
2022/12/05 04:49:12;;;;;;;0.60;0.60;;;4.90;99.90;;;;;;5066565;28;20052;-81
2022/12/05 04:51:40;;;;;;;0.60;0.60;;;5.00;99.90;;;;;;5050159;28;20040;-82
2022/12/05 04:54:36;;;;;;;0.60;0.60;;;5.00;99.90;;;;;;5038166;28;20072;-81
2022/12/05 04:57:11;;;;;;;0.60;0.60;;;4.90;99.90;;;;;;5022614;28;20041;-81
2022/12/05 04:59:37;;;;;;;0.40;0.40;;;4.90;99.90;;;;;;5048162;28;20056;-82
2022/12/05 05:02:09;;;;;;;0.60;0.60;;;4.90;99.90;;;;;;5055964;28;20068;-81
2022/12/05 05:04:39;;;;;;;0.40;0.40;;;4.90;99.90;;;;;;5048656;28;20049;-82
2022/12/05 05:07:08;;;;;;;0.85;0.85;;;4.90;99.90;;;;;;5039962;28;20581;-82
2022/12/05 05:09:34;;;;;;;0.55;0.55;;;4.90;99.90;;;;;;5056345;28;20190;-80
2022/12/05 05:12:00;;;;;;;0.50;0.50;;;4.90;99.90;;;;;;5054991;28;20094;-82
2022/12/05 05:14:26;;;;;;;0.57;0.57;;;4.90;99.90;;;;;;5069529;28;20048;-82
2022/12/05 05:16:51;;;;;;;0.70;0.70;;;4.90;99.90;;;;;;5065078;28;20052;-81
2022/12/05 05:19:17;;;;;;;1.38;1.10;;;4.90;99.90;;;;;;5070276;28;20037;-82
2022/12/05 05:21:43;;;;;;;1.13;1.02;;;4.90;99.90;;;;;;5051710;28;20447;-81
2022/12/05 05:24:10;;;;;;;0.60;0.60;;;6.00;99.90;;;;;;5066148;28;20591;-81
2022/12/05 05:26:39;;;;;;;0.60;0.60;;;4.90;99.90;;;;;;5052405;28;20056;-82
2022/12/05 05:29:06;;;;;;;0.60;0.60;;;4.90;99.90;;;;;;5054219;28;20044;-82
2022/12/05 05:31:32;;;;;;;0.45;0.45;;;4.90;99.90;;;;;;5069413;28;20086;-81
2022/12/05 05:33:58;;;;;;;0.70;0.70;;;4.90;99.90;;;;;;5069256;28;20409;-83
2022/12/05 05:36:25;;;;;;;0.77;0.77;;;4.90;99.90;;;;;;5068528;28;20041;-82
2022/12/05 05:38:54;;;;;;;0.88;0.88;;;5.40;99.90;;;;;;5057395;28;20045;-83
2022/12/05 05:41:26;;;;;;;0.73;0.73;;;4.90;99.90;;;;;;5057526;28;20063;-82
2022/12/05 05:43:53;;;;;;;0.75;0.75;;;4.90;99.90;;;;;;5056303;28;20043;-84
2022/12/05 05:46:22;;;;;;;0.60;0.60;;;4.80;99.90;;;;;;5074376;28;20078;-83
2022/12/05 05:48:48;;;;;;;0.60;0.60;;;4.90;99.90;;;;;;5046376;28;20067;-82
2022/12/05 05:51:17;;;;;;;0.50;0.50;;;4.90;99.90;;;;;;5055799;28;20036;-82
2022/12/05 05:53:43;;;;;;;0.63;0.63;;;4.90;99.90;;;;;;5058148;28;20099;-82
2022/12/05 05:56:12;;;;;;;0.70;0.70;;;4.90;99.90;;;;;;5036873;28;20404;-82
2022/12/05 05:58:38;;;;;;;0.50;0.50;;;5.10;99.90;;;;;;5057395;28;20040;-82
2022/12/05 06:01:10;;;;;;;0.55;0.55;;;4.90;99.90;;;;;;5068633;28;20029;-81
2022/12/05 06:03:36;;;;;;;0.55;0.55;;;4.90;99.90;;;;;;5064227;28;20047;-81
2022/12/05 06:06:04;;;;;;;;;;;4.90;99.90;;;;;;5060056;28;20037;-83
2022/12/05 06:08:32;;;;;;;0.60;0.60;;;4.90;99.90;;;;;;5057612;28;19994;-82
2022/12/05 06:10:58;;;;;;;0.52;0.52;;;4.90;99.90;;;;;;5073092;28;20048;-81
2022/12/05 06:13:23;;;;;;;0.75;0.75;;;4.90;99.90;;;;;;5060224;28;20035;-81
2022/12/05 06:15:49;;;;;;;0.60;0.60;;;5.00;99.90;;;;;;5055689;28;20354;-82
2022/12/05 06:18:15;;;;;;;1.13;1.10;;;4.90;99.90;;;;;;5072886;28;20041;-81
2022/12/05 06:20:40;;;;;;;0.60;0.60;;;4.90;99.90;;;;;;5040612;28;20127;-80
2022/12/05 06:23:06;;;;;;;0.60;0.60;;;4.90;99.90;;;;;;5055544;28;20029;-82
2022/12/05 06:25:32;;;;;;;0.60;0.60;;;4.90;99.90;;;;;;5071158;28;20106;-83
2022/12/05 06:27:58;;;;;;;0.70;0.70;;;4.90;99.90;;;;;;5074337;28;20539;-82
2022/12/05 06:30:23;;;;;;;0.60;0.60;;;4.90;99.90;;;;;;5069381;28;20080;-81
2022/12/05 06:32:49;;;;;;;0.70;0.70;;;5.00;99.90;;;;;;5060196;28;20490;-80
2022/12/05 06:35:15;;;;;;;0.50;0.50;;;5.00;99.90;;;;;;5057603;28;20033;-82
2022/12/05 06:37:42;;;;;;;0.50;0.50;;;5.00;99.90;;;;;;5054101;28;20130;-81
2022/12/05 06:40:14;;;;;;;0.60;0.60;;;5.00;99.90;;;;;;5053965;28;20055;-83
2022/12/05 06:42:40;;;;;;;0.60;0.60;;;5.70;99.90;;;;;;5025395;28;20059;-82
2022/12/05 06:45:06;;;;;;;0.60;0.60;;;5.00;99.90;;;;;;5043954;28;20045;-82
2022/12/05 06:47:32;;;;;;;0.70;0.70;;;5.00;99.90;;;;;;5052499;28;20048;-83
2022/12/05 06:49:57;;;;;;;0.50;0.50;;;5.40;99.90;;;;;;5006875;28;20063;-83
2022/12/05 06:52:23;;;;;;;1.05;1.05;;;5.00;99.90;;;;;;5028428;28;20047;-82
2022/12/05 06:54:49;;;;;;;0.70;0.70;;;5.20;99.90;;;;;;5044904;28;20102;-83
2022/12/05 06:57:15;;;;;;;0.68;0.68;;;5.00;99.90;;;;;;5054695;28;20132;-83
2022/12/05 06:59:41;;;;;;;0.70;0.70;;;5.00;99.90;;;;;;5034511;28;20545;-83
2022/12/05 07:02:08;;;;;;;0.57;0.57;;;5.00;99.90;;;;;;5056438;28;20435;-83
2022/12/05 07:04:33;;;;;;;0.55;0.55;;;5.00;99.90;;;;;;5042100;28;20063;-83
2022/12/05 07:07:02;;;;;;;0.65;0.65;;;5.70;99.90;;;;;;5036004;28;20041;-84
2022/12/05 07:12:15;;;;;;;0.68;0.68;;;5.00;99.90;;;;;;5065330;28;20044;-83
2022/12/05 07:14:42;;;;;;;0.50;0.50;;;5.00;99.90;;;;;;5053230;28;20062;-82
2022/12/05 07:17:08;;;;;;;;;;;6.10;99.90;;;;;;5045732;28;20044;-82
2022/12/05 07:19:33;;;;;;;0.60;0.60;;;6.20;99.90;;;;;;5036134;28;19932;-83
2022/12/05 07:22:01;;;;;;;0.57;0.57;;;5.00;99.90;;;;;;5023604;28;20056;-83
2022/12/05 07:24:27;;;;;;;0.88;0.88;;;5.00;99.90;;;;;;5030731;28;20094;-83
2022/12/05 07:26:53;;;;;;;0.60;0.60;;;5.80;99.90;;;;;;5066857;28;20044;-82
2022/12/05 07:29:18;;;;;;;1.50;1.40;;;5.30;99.90;;;;;;5060581;28;20040;-83
2022/12/05 07:31:44;;;;;;;0.85;0.85;;;5.10;99.90;;;;;;5033058;28;20390;-82
2022/12/05 07:34:10;;;;;;;0.63;0.63;;;5.10;99.90;;;;;;5063820;28;20486;-83
2022/12/05 07:36:36;;;;;;;0.88;0.88;;;5.10;99.90;;;;;;5026626;28;20090;-83
2022/12/05 07:39:02;;;;;;;0.60;0.60;;;5.10;99.90;;;;;;5053817;28;20102;-83
2022/12/05 07:41:31;;;;;;;0.52;0.52;;;5.10;99.90;;;;;;5047227;28;20044;-83
2022/12/05 07:43:58;;;;;;;1.00;1.00;;;5.10;99.90;;;;;;5045004;28;20032;-84
2022/12/05 07:46:26;;;;;;;0.75;0.75;;;5.10;99.90;;;;;;5059826;28;20033;-83
2022/12/05 07:48:53;;;;;;;1.08;1.08;;;5.20;99.90;;;;;;5070898;28;20048;-83
2022/12/05 07:51:20;;;;;;;0.77;0.77;;;5.10;99.90;;;;;;5038697;28;20470;-83
2022/12/05 07:53:46;;;;;;;0.60;0.60;;;5.30;99.90;;;;;;5065621;28;20048;-83
2022/12/05 07:56:17;;;;;;;9.35;0.88;;;5.10;99.90;;;;;;5055155;28;20675;-81
2022/12/05 07:58:45;;;;;;;0.60;0.60;;;5.20;99.90;;;;;;5069163;28;20125;-82
2022/12/05 08:01:22;;;;;;;0.50;0.50;;;5.20;99.90;;;;;;5031695;28;20032;-84
2022/12/05 08:03:57;;;;;;;0.60;0.60;;;5.20;99.90;;;;;;5050028;28;20044;-83
2022/12/05 08:06:25;;;;;;;0.50;0.50;;;5.20;99.90;;;;;;5054726;28;20040;-82
2022/12/05 08:08:52;;;;;;;1.20;1.17;;;5.20;99.90;;;;;;5062740;28;20041;-81
2022/12/05 08:11:21;;;;;;;0.90;0.90;;;6.10;99.90;;;;;;5059973;28;20059;-81
2022/12/05 08:13:48;;;;;;;0.77;0.77;;;5.20;99.90;;;;;;5061494;28;20041;-81
2022/12/05 08:16:17;;;;;;;0.50;0.50;;;5.20;99.90;;;;;;5061925;28;20048;-80
2022/12/05 08:18:43;;;;;;;0.55;0.55;;;5.20;99.90;;;;;;5043163;28;20044;-80
2022/12/05 08:21:12;;;;;;;1.20;1.20;;;5.90;99.90;;;;;;5075603;28;20727;-81
2022/12/05 08:23:38;;;;;;;0.60;0.60;;;5.70;99.90;;;;;;5056457;28;20041;-82
2022/12/05 08:26:13;;;;;;;0.65;0.65;;;5.20;99.90;;;;;;5063701;28;20072;-84
2022/12/05 08:28:40;;;;;;;0.50;0.50;;;5.20;99.90;;;;;;5071921;28;20055;-82
2022/12/05 08:31:14;;;;;;;0.55;0.55;;;5.20;99.90;;;;;;5074773;28;20041;-85
2022/12/05 08:33:41;;;;;;;0.70;0.70;;;5.20;99.90;;;;;;5049217;28;20049;-83
2022/12/05 08:36:10;;;;;;;0.52;0.52;;;5.20;99.90;;;;;;5054708;28;20049;-84
2022/12/05 08:38:36;;;;;;;0.52;0.52;;;5.20;99.90;;;;;;5057513;28;20553;-84
2022/12/05 08:41:08;;;;;;;0.63;0.63;;;5.20;99.90;;;;;;5062382;28;20120;-84
2022/12/05 08:43:33;;;;;;;1.08;0.93;;;5.20;99.90;;;;;;5074442;28;20245;-83
2022/12/05 08:45:59;;;;;;;0.60;0.60;;;5.20;99.90;;;;;;5061851;28;20145;-83
2022/12/05 08:48:26;;;;;;;;;;;5.20;99.90;;;;;;5035618;28;20097;-82
2022/12/05 08:50:51;;;;;;;0.85;0.85;;;5.20;99.90;;;;;;5058934;28;19923;-83
2022/12/05 08:53:17;;;;;;;0.50;0.50;;;5.20;99.90;;;;;;5067579;28;20053;-84
2022/12/05 08:55:44;;;;;;;0.40;0.40;;;5.20;99.90;;;;;;5051582;28;20037;-83
2022/12/05 08:58:10;;;;;;;1.48;1.08;;;5.20;99.90;;;;;;5057853;28;20040;-84
2022/12/05 09:00:37;;;;;;;0.60;0.60;;;5.30;99.90;;;;;;5064754;28;20041;-81
2022/12/05 09:03:02;;;;;;;0.60;0.60;;;5.20;99.90;;;;;;5052357;28;20359;-79
2022/12/05 09:05:30;;;;;;;0.70;0.70;;;5.20;99.90;;;;;;5067012;28;20052;-85
2022/12/05 09:07:58;;;;;;;0.55;0.55;;;5.20;99.90;;;;;;5061321;28;20474;-83
2022/12/05 09:10:30;;;;;;;1.00;1.00;;;5.20;99.90;;;;;;5065948;28;20093;-85
2022/12/05 09:12:56;;;;;;;;;;;5.30;99.90;;;;;;5044922;28;20040;-85
2022/12/05 09:15:22;;;;;;;0.60;0.60;;;5.20;99.90;;;;;;5064856;28;19969;-84
2022/12/05 09:17:47;;;;;;;0.65;0.65;;;5.30;99.90;;;;;;5033292;28;20482;-86
2022/12/05 09:20:13;;;;;;;0.93;0.90;;;5.20;99.90;;;;;;5068115;28;20037;-84
2022/12/05 09:22:40;;;;;;;0.63;0.63;;;6.20;99.90;;;;;;5049387;28;20398;-85
2022/12/05 09:25:07;;;;;;;0.60;0.60;;;5.30;99.90;;;;;;5066948;28;20044;-83
2022/12/05 09:27:32;;;;;;;0.82;0.82;;;5.30;99.90;;;;;;5071135;28;20072;-83
2022/12/05 09:30:01;;;;;;;0.70;0.70;;;5.30;99.90;;;;;;5055167;28;20037;-85
2022/12/05 09:32:27;;;;;;;0.60;0.60;;;5.30;99.90;;;;;;5048881;28;20059;-85
2022/12/05 09:34:58;;;;;;;1.13;1.10;;;6.30;99.90;;;;;;5052155;28;20056;-86
2022/12/05 09:37:24;;;;;;;1.67;1.40;;;5.30;99.90;;;;;;5062426;28;20086;-84
2022/12/05 09:39:50;;;;;;;0.70;0.70;;;5.30;99.90;;;;;;5061151;28;20084;-84
2022/12/05 09:42:43;;;;;;;0.90;0.90;;;5.30;99.90;;;;;;5031740;28;20940;-84
2022/12/05 09:45:34;;;;;;;0.60;0.60;;;5.30;99.90;;;;;;5060720;28;20072;-85
2022/12/05 09:48:21;;;;;;;0.85;0.82;;;6.10;99.90;;;;;;5048066;28;20051;-83
2022/12/05 09:51:00;;;;;;;0.80;0.80;;;5.30;99.90;;;;;;5065982;28;20116;-85
2022/12/05 09:53:36;;;;;;;0.50;0.50;;;5.30;99.90;;;;;;5068402;28;20405;-85
2022/12/05 09:56:08;;;;;;;0.40;0.40;;;5.30;99.90;;;;;;5051198;28;20043;-85
2022/12/05 09:58:50;;;;;;;0.52;0.52;;;5.30;99.90;;;;;;5070689;28;20110;-85
2022/12/05 10:01:53;;;;;;;0.60;0.60;;;5.30;99.90;;;;;;5083429;28;20047;-84
2022/12/05 10:04:33;;;;;;;0.45;0.45;;;5.30;99.90;;;;;;5046547;28;20108;-83
2022/12/05 10:07:22;;;;;;;0.60;0.60;;;5.40;99.90;;;;;;5068798;28;20080;-82
2022/12/05 10:10:29;;;;;;;1.65;1.65;;;5.30;99.90;;;;;;5067954;28;20502;-85
2022/12/05 10:13:17;;;;;;;0.50;0.50;;;5.30;99.90;;;;;;5050361;28;20044;-84
2022/12/05 10:15:49;;;;;;;0.50;0.50;;;5.30;99.90;;;;;;5068477;28;20040;-84
2022/12/05 10:18:23;;;;;;;0.90;0.90;;;6.20;99.90;;;;;;5049628;28;20432;-84
2022/12/05 10:21:02;;;;;;;0.50;0.50;;;5.20;99.90;;;;;;5080193;28;20036;-85
2022/12/05 10:23:40;;;;;;;0.60;0.60;;;5.30;99.90;;;;;;5051309;28;20386;-83
2022/12/05 10:26:10;;;;;;;0.52;0.52;;;5.30;99.90;;;;;;5076049;28;20045;-84
2022/12/05 10:28:59;;;;;;;0.70;0.70;;;5.20;99.90;;;;;;5039170;28;20052;-85
2022/12/05 10:31:31;;;;;;;0.63;0.63;;;5.20;99.90;;;;;;5063569;28;20481;-84
2022/12/05 10:34:09;;;;;;;0.60;0.60;;;5.20;99.90;;;;;;5048311;28;20057;-85
2022/12/05 10:36:34;;;;;;;0.60;0.60;;;5.20;99.90;;;;;;5073820;28;20037;-85
2022/12/05 10:39:00;;;;;;;0.40;0.40;;;5.80;99.90;;;;;;5079905;28;20607;-85
2022/12/05 10:41:27;;;;;;;0.77;0.77;;;5.30;99.90;;;;;;5071063;28;20071;-84
2022/12/05 10:43:55;;;;;;;0.82;0.82;;;5.20;99.90;;;;;;5032452;28;20051;-83
2022/12/05 10:46:21;;;;;;;0.60;0.60;;;5.20;99.90;;;;;;5058766;28;20120;-82
2022/12/05 10:48:47;;;;;;;0.70;0.70;;;5.20;99.90;;;;;;5047780;28;20124;-84
2022/12/05 10:51:19;;;;;;;0.80;0.80;;;5.20;99.90;;;;;;5060628;28;20152;-83
2022/12/05 10:53:48;;;;;;;0.77;0.77;;;6.20;99.90;;;;;;5071501;28;20041;-83
2022/12/05 10:56:35;;;;;;;1.05;1.05;;;5.20;99.90;;;;;;5062421;28;20060;-84
2022/12/05 10:59:02;;;;;;;3.22;1.15;;;5.20;99.90;;;;;;5075227;28;20041;-85
2022/12/05 11:01:28;;;;;;;0.40;0.40;;;5.20;99.90;;;;;;5042479;28;20165;-82
2022/12/05 11:03:57;;;;;;;;;;;5.20;99.90;;;;;;5050968;28;20040;-83
2022/12/05 11:06:26;;;;;;;0.52;0.52;;;5.20;99.90;;;;;;5040238;28;21684;-84
2022/12/05 11:08:55;;;;;;;0.82;0.82;;;5.90;99.90;;;;;;5051290;28;20052;-83
2022/12/05 11:11:24;;;;;;;0.85;0.85;;;5.20;99.90;;;;;;5050577;28;20056;-84
2022/12/05 11:14:06;;;;;;;0.70;0.70;;;5.30;99.90;;;;;;5053844;28;20069;-84
2022/12/05 11:16:36;;;;;;;0.60;0.60;;;5.30;99.90;;;;;;5057414;28;20080;-83
2022/12/05 11:19:20;;;;;;;1.13;1.08;;;5.20;99.90;;;;;;5036296;28;20127;-84
2022/12/05 11:21:50;;;;;;;0.60;0.60;;;5.30;99.90;;;;;;5052047;28;20048;-84
2022/12/05 11:24:26;;;;;;;0.50;0.50;;;5.30;99.90;;;;;;5032368;28;20048;-84
2022/12/05 11:26:52;;;;;;;0.85;0.85;;;5.30;99.90;;;;;;5054325;28;20064;-84
2022/12/05 11:29:38;;;;;;;0.60;0.60;;;5.30;99.90;;;;;;5040107;28;20128;-84
2022/12/05 11:32:15;;;;;;;0.50;0.50;;;5.30;99.90;;;;;;5053369;28;20072;-84
2022/12/05 11:35:10;;;;;;;0.50;0.50;;;5.20;99.90;;;;;;5050651;28;20040;-84
2022/12/05 11:37:43;;;;;;;0.90;0.90;;;5.20;99.90;;;;;;5055488;28;20055;-85
2022/12/05 11:40:31;;;;;;;0.47;0.47;;;5.20;99.90;;;;;;5048765;28;20048;-83
2022/12/05 11:43:35;;;;;;;0.70;0.70;;;5.20;99.90;;;;;;5047761;28;20054;-84
2022/12/05 11:46:23;;;;;;;1.55;1.30;;;5.20;99.90;;;;;;5038169;28;20045;-85
2022/12/05 11:49:02;;;;;;;0.60;0.60;;;5.20;99.90;;;;;;5067710;28;20048;-84
2022/12/05 11:51:38;;;;;;;0.60;0.60;;;5.20;99.90;;;;;;5050227;28;20048;-85
2022/12/05 11:54:16;;;;;;;0.52;0.52;;;5.50;99.90;;;;;;5057413;28;20071;-79
2022/12/05 11:56:51;;;;;;;0.60;0.60;;;5.20;99.90;;;;;;5067575;28;20041;-79
2022/12/05 11:59:41;;;;;;;0.60;0.60;;;5.10;99.90;;;;;;5043613;28;20073;-78
2022/12/05 12:02:28;;;;;;;0.70;0.70;;;5.20;99.90;;;;;;5048703;28;20071;-79
2022/12/05 12:05:12;;;;;;;0.95;0.95;;;5.10;99.90;;;;;;5071258;28;20083;-81
2022/12/05 12:08:09;;;;;;;0.57;0.57;;;5.10;99.90;;;;;;5050782;28;20493;-81
2022/12/05 12:11:06;;;;;;;0.70;0.70;;;5.10;99.90;;;;;;5047387;28;20048;-80
2022/12/05 12:13:44;;;;;;;0.50;0.50;;;5.10;99.90;;;;;;5044686;28;20040;-79
2022/12/05 12:16:22;;;;;;;0.50;0.50;;;5.10;99.90;;;;;;5045653;28;20064;-80
2022/12/05 12:19:32;;;;;;;0.50;0.50;;;5.10;99.90;;;;;;5062293;28;20064;-80
2022/12/05 12:22:10;;;;;;;0.60;0.60;;;5.10;99.90;;;;;;4994856;28;20067;-80
2022/12/05 12:24:48;;;;;;;0.60;0.60;;;5.10;99.90;;;;;;5057985;28;20705;-80
2022/12/05 12:27:38;;;;;;;0.70;0.70;;;5.10;99.90;;;;;;5049609;28;20041;-79
2022/12/05 12:30:27;;;;;;;0.70;0.70;;;5.10;99.90;;;;;;5061986;28;20037;-80
2022/12/05 12:32:59;;;;;;;0.68;0.68;;;5.30;99.90;;;;;;5061398;28;20057;-80
2022/12/05 12:35:29;;;;;;;0.50;0.50;;;5.10;99.90;;;;;;5030875;28;20044;-79
2022/12/05 12:38:17;;;;;;;0.50;0.50;;;5.10;99.90;;;;;;5035330;28;20043;-79
2022/12/05 12:41:07;;;;;;;0.60;0.60;;;5.10;99.90;;;;;;5082714;27;20455;-79
2022/12/05 12:43:40;;;;;;;0.60;0.60;;;5.20;99.90;;;;;;5070302;28;20044;-80
2022/12/05 12:46:34;;;;;;;0.50;0.50;;;5.20;99.90;;;;;;5078149;28;20052;-79
2022/12/05 12:49:06;;;;;;;0.50;0.50;;;5.20;99.90;;;;;;5087866;28;20131;-80
2022/12/05 12:51:32;;;;;;;0.60;0.60;;;5.20;99.90;;;;;;5075998;28;20044;-79
2022/12/05 12:54:39;;;;;;;0.70;0.70;;;5.20;99.90;;;;;;5069081;28;20494;-80
2022/12/05 12:57:13;;;;;;;0.50;0.50;;;5.20;99.90;;;;;;5096884;28;20100;-80
2022/12/05 12:59:57;;;;;;;0.60;0.60;;;5.20;99.90;;;;;;5121267;27;20499;-80
2022/12/05 13:02:50;;;;;;;0.40;0.40;;;5.20;99.90;;;;;;5057208;28;20855;-79
2022/12/05 13:05:36;;;;;;;0.60;0.60;;;5.20;99.90;;;;;;5078495;28;20067;-79
2022/12/05 13:08:21;;;;;;;0.57;0.57;;;5.20;99.90;;;;;;5081881;28;20086;-80
2022/12/05 13:10:48;;;;;;;0.50;0.50;;;5.20;99.90;;;;;;5062452;28;20036;-79
2022/12/05 13:13:24;;;;;;;0.95;0.95;;;5.30;99.90;;;;;;5056663;28;20082;-80
2022/12/05 13:15:59;;;;;;;0.50;0.50;;;5.20;99.90;;;;;;5075100;28;20183;-81
2022/12/05 13:18:25;;;;;;;1.33;1.33;;;5.10;99.90;;;;;;5093148;28;20044;-79
2022/12/05 13:20:58;;;;;;;0.55;0.55;;;5.10;99.90;;;;;;5047100;28;20416;-80
2022/12/05 13:23:30;;;;;;;0.50;0.50;;;5.20;99.90;;;;;;5068806;28;20041;-78
2022/12/05 13:26:00;;;;;;;0.60;0.60;;;5.10;99.90;;;;;;5069586;28;20119;-80
2022/12/05 13:28:40;;;;;;;0.55;0.55;;;5.20;99.90;;;;;;5071297;28;20051;-77
2022/12/05 13:31:09;;;;;;;0.88;0.88;;;5.10;99.90;;;;;;5065014;28;20521;-78
2022/12/05 13:33:50;;;;;;;0.60;0.60;;;5.10;99.90;;;;;;5051624;28;20036;-80